Time;durP1;ratioP1;P1;durP2;ratioP2;P2;SDS_P1;SDS_P2;PMS_P1;PMS_P2;Temp;Humidity;BMP_temperature;BMP_pressure;BME280_temperature;BME280_humidity;BME280_pressure;Samples;Min_cycle;Max_cycle;Signal;HPM_P1;HPM_P2
2023/06/13 00:01:49;;;;;;;4.00;3.57;;;20.40;49.30;;;20.28;35.83;101053.72;5055037;28;20587;-74
2023/06/13 00:04:23;;;;;;;5.07;3.60;;;20.30;48.40;;;20.22;35.92;101054.53;5054849;28;20576;-74
2023/06/13 00:06:58;;;;;;;5.20;3.80;;;20.40;49.10;;;20.05;36.04;101047.91;5055224;28;20201;-74
2023/06/13 00:09:32;;;;;;;5.40;3.50;;;20.20;49.10;;;19.98;36.69;101047.09;5055165;28;20186;-74
2023/06/13 00:12:06;;;;;;;6.87;3.83;;;20.00;49.60;;;19.89;37.15;101048.41;5054727;28;20193;-74
2023/06/13 00:14:39;;;;;;;4.93;3.63;;;20.00;50.40;;;19.82;36.43;101050.31;5055127;28;20281;-74
2023/06/13 00:17:13;;;;;;;4.33;3.63;;;19.90;49.50;;;19.69;37.07;101043.84;5055094;28;20191;-74
2023/06/13 00:19:48;;;;;;;4.30;3.40;;;19.80;49.80;;;19.81;37.32;101044.03;5054852;28;20237;-74
2023/06/13 00:22:24;;;;;;;5.57;3.53;;;19.90;51.10;;;19.82;36.52;101044.88;5054490;28;20597;-74
2023/06/13 00:24:57;;;;;;;4.93;3.73;;;19.90;50.00;;;19.68;36.57;101044.91;5054922;28;20244;-74
2023/06/13 00:27:33;;;;;;;4.63;3.57;;;19.80;49.60;;;19.72;37.57;101039.88;5054810;28;20229;-74
2023/06/13 00:30:08;;;;;;;4.63;3.93;;;19.80;50.40;;;19.59;37.41;101034.44;5054481;28;20186;-74
2023/06/13 00:32:42;;;;;;;4.37;3.50;;;19.70;50.20;;;19.56;37.18;101034.88;5054324;28;20706;-74
2023/06/13 00:35:16;;;;;;;7.77;4.23;;;19.70;50.50;;;19.60;38.09;101036.97;5053820;28;20244;-74
2023/06/13 00:37:50;;;;;;;5.30;3.53;;;19.70;51.30;;;19.60;37.32;101036.97;5054590;28;20277;-74
2023/06/13 00:40:24;;;;;;;6.67;3.67;;;19.70;50.70;;;19.50;38.18;101042.00;5054780;28;20241;-74
2023/06/13 00:42:58;;;;;;;6.97;3.80;;;19.60;51.10;;;19.56;37.92;101037.59;5054483;28;20229;-74
2023/06/13 00:45:33;;;;;;;3.80;3.40;;;19.60;51.20;;;19.52;37.28;101033.66;5054153;28;20662;-74
2023/06/13 00:48:08;;;;;;;7.53;3.80;;;19.60;50.80;;;19.39;37.08;101045.31;5054095;28;20190;-74
2023/06/13 00:50:43;;;;;;;3.93;3.53;;;19.50;50.30;;;19.41;37.76;101040.56;5054408;28;20213;-74
2023/06/13 00:53:19;;;;;;;5.47;3.60;;;19.50;50.80;;;19.35;37.44;101040.53;5054304;28;20316;-74
2023/06/13 00:55:54;;;;;;;4.63;3.40;;;19.40;50.70;;;19.31;37.78;101037.41;5054805;28;20222;-74
2023/06/13 00:58:28;;;;;;;5.63;4.00;;;19.40;51.00;;;19.31;38.10;101037.41;5054174;28;20225;-74
2023/06/13 01:01:03;;;;;;;5.87;3.77;;;19.40;51.10;;;19.25;37.45;101030.06;5053913;28;20661;-74
2023/06/13 01:03:39;;;;;;;9.73;3.30;;;19.40;50.90;;;19.22;38.16;101027.78;5054092;28;20312;-74
2023/06/13 01:06:14;;;;;;;4.37;3.30;;;19.30;51.50;;;19.25;38.59;101032.78;5054125;28;20190;-74
2023/06/13 01:08:47;;;;;;;4.73;3.23;;;19.30;51.60;;;19.25;38.47;101027.38;5054114;28;20194;-74
2023/06/13 01:11:33;;;;;;;4.03;3.37;;;19.40;51.70;;;19.25;37.78;101030.06;5053656;28;20718;-74
2023/06/13 01:14:20;;;;;;;5.63;3.53;;;19.40;51.70;;;19.24;38.14;101029.28;5053558;28;20234;-74
2023/06/13 01:17:03;;;;;;;5.37;3.50;;;19.30;51.70;;;19.22;38.16;101027.78;5053859;28;20221;-74
2023/06/13 01:19:43;;;;;;;5.07;3.60;;;19.40;51.80;;;19.11;38.68;101026.53;5053753;28;20249;-74
2023/06/13 01:22:24;;;;;;;5.50;3.83;;;19.20;52.00;;;19.09;38.86;101023.22;5053637;28;20201;-74
2023/06/13 01:25:26;;;;;;;7.70;4.10;;;19.20;52.60;;;19.00;38.60;101026.34;5053762;28;20273;-74
2023/06/13 01:28:02;;;;;;;6.57;3.60;;;19.00;51.90;;;18.85;38.03;101020.28;5053794;28;20213;-74
2023/06/13 01:30:36;;;;;;;3.53;3.20;;;19.00;52.30;;;18.90;39.17;101028.63;5053729;28;20192;-74
2023/06/13 01:33:11;;;;;;;5.87;3.90;;;19.00;52.60;;;18.94;39.11;101024.47;5053623;28;20324;-74
2023/06/13 01:35:47;;;;;;;3.53;3.20;;;19.10;52.40;;;18.90;38.75;101020.50;5053358;28;20194;-74
2023/06/13 01:38:22;;;;;;;3.80;3.30;;;19.00;52.30;;;18.90;39.04;101020.50;5053619;28;20280;-74
2023/06/13 01:40:56;;;;;;;4.03;3.63;;;19.10;52.70;;;18.93;38.92;101017.38;5053468;28;20244;-74
2023/06/13 01:43:29;;;;;;;4.80;3.40;;;19.10;52.40;;;18.82;38.75;101020.69;5053443;28;20225;-74
2023/06/13 01:46:14;;;;;;;4.20;3.17;;;19.00;52.60;;;18.77;39.34;101023.19;5053144;28;20264;-74
2023/06/13 01:49:01;;;;;;;5.07;3.50;;;18.80;53.20;;;18.64;39.60;101019.41;5053409;28;20190;-74
2023/06/13 01:51:45;;;;;;;4.83;4.03;;;18.80;52.90;;;18.62;39.52;101018.78;5053380;28;20279;-74
2023/06/13 01:54:25;;;;;;;3.70;3.33;;;18.70;54.20;;;18.64;39.31;101016.69;5053326;28;20321;-74
2023/06/13 01:57:07;;;;;;;5.53;3.50;;;18.70;52.90;;;18.57;39.77;101020.44;5053297;28;20293;-74
2023/06/13 01:59:44;;;;;;;3.90;3.13;;;18.70;53.30;;;18.50;40.04;101017.72;5052872;28;20572;-74
2023/06/13 02:02:18;;;;;;;4.57;3.30;;;18.60;53.50;;;18.34;39.36;101009.94;5053193;28;20231;-74
2023/06/13 02:04:55;;;;;;;4.53;3.47;;;18.50;53.10;;;18.37;40.10;101014.94;5053226;28;20244;-74
2023/06/13 02:07:28;;;;;;;6.30;3.40;;;18.50;54.00;;;18.35;39.66;101013.47;5053166;28;20190;-73
2023/06/13 02:10:04;;;;;;;4.07;3.03;;;18.40;53.70;;;18.38;40.22;101013.91;5053238;28;20183;-73
2023/06/13 02:12:39;;;;;;;5.50;3.13;;;18.50;54.30;;;18.34;40.30;101014.50;5053092;28;20268;-73
2023/06/13 02:15:14;;;;;;;6.57;3.17;;;18.50;54.30;;;18.29;40.27;101015.09;5053140;28;20194;-73
2023/06/13 02:17:47;;;;;;;6.43;3.40;;;18.40;54.40;;;18.14;40.29;101009.03;5053140;28;20186;-73
2023/06/13 02:20:21;;;;;;;3.93;3.40;;;18.20;55.00;;;18.15;40.22;101013.41;5052589;28;20572;-73
2023/06/13 02:22:54;;;;;;;3.97;3.40;;;18.30;59.00;;;18.03;40.28;101015.03;5052957;28;20226;-73
2023/06/13 02:25:28;;;;;;;4.67;3.10;;;18.20;59.50;;;18.04;40.55;101012.13;5053060;28;20289;-73
2023/06/13 02:28:01;;;;;;;3.83;3.10;;;18.20;60.30;;;18.05;40.96;101010.22;5053210;28;20200;-73
2023/06/13 02:30:35;;;;;;;4.03;3.20;;;18.20;59.80;;;17.98;41.25;101014.81;5052854;28;20289;-72
2023/06/13 02:33:08;;;;;;;5.03;3.27;;;18.10;59.80;;;17.92;41.23;101013.72;5052503;28;20329;-73
2023/06/13 02:35:45;;;;;;;5.47;3.60;;;18.00;60.00;;;17.87;41.76;101015.38;5052530;28;20200;-73
2023/06/13 02:38:19;;;;;;;3.90;3.37;;;18.00;61.80;;;17.77;41.51;101021.16;5052884;28;20605;-73
2023/06/13 02:40:54;;;;;;;4.37;3.20;;;18.00;63.10;;;17.89;42.21;101018.72;5052714;28;20269;-73
2023/06/13 02:43:27;;;;;;;4.10;3.43;;;18.00;63.80;;;17.82;41.61;101023.25;5052709;28;20312;-69
2023/06/13 02:46:02;;;;;;;6.17;3.90;;;18.00;62.80;;;17.62;43.00;101013.16;5052339;28;20713;-69
2023/06/13 02:48:35;;;;;;;5.37;3.67;;;17.80;62.50;;;17.54;43.46;101018.69;5052385;28;20638;-69
2023/06/13 02:51:10;;;;;;;5.27;3.57;;;17.70;61.80;;;17.46;43.22;101018.88;5052632;28;20209;-69
2023/06/13 02:53:43;;;;;;;4.37;3.60;;;17.60;62.50;;;17.55;43.56;101014.97;5052516;28;20319;-69
2023/06/13 02:56:16;;;;;;;5.13;3.80;;;17.80;61.30;;;17.57;43.29;101021.03;5052590;28;20285;-69
2023/06/13 02:58:50;;;;;;;5.50;3.50;;;17.80;60.30;;;17.58;43.22;101017.28;5054128;28;20198;-69
2023/06/13 03:01:23;;;;;;;3.77;3.40;;;17.80;59.80;;;17.56;43.52;101019.38;5056303;28;20221;-69
2023/06/13 03:03:57;;;;;;;8.50;3.50;;;17.70;59.20;;;17.33;43.35;101018.75;5056955;28;20233;-69
2023/06/13 03:06:31;;;;;;;4.27;3.43;;;17.40;58.70;;;17.39;43.12;101014.44;5055944;28;20657;-69
2023/06/13 03:09:04;;;;;;;6.70;3.73;;;17.50;59.20;;;17.36;43.74;101012.97;5056170;28;20191;-69
2023/06/13 03:11:37;;;;;;;4.63;3.37;;;17.50;58.80;;;17.30;43.49;101012.91;5056114;28;20182;-69
2023/06/13 03:14:11;;;;;;;4.83;3.37;;;17.50;59.00;;;17.19;43.84;101008.88;5056020;28;20317;-69
2023/06/13 03:16:44;;;;;;;5.67;3.80;;;17.40;58.90;;;17.20;44.71;101013.25;5055955;28;20194;-69
2023/06/13 03:19:18;;;;;;;4.83;3.50;;;17.30;58.70;;;17.07;44.63;101013.16;5055679;28;20197;-69
2023/06/13 03:21:51;;;;;;;5.50;3.33;;;17.30;59.30;;;17.12;44.13;101013.41;5055884;28;20245;-69
2023/06/13 03:24:24;;;;;;;3.77;3.30;;;17.20;59.30;;;16.97;44.74;101008.09;5055649;28;20308;-69
2023/06/13 03:26:59;;;;;;;7.30;3.67;;;17.20;59.70;;;16.93;45.37;101014.06;5055900;28;20198;-69
2023/06/13 03:29:32;;;;;;;3.83;3.30;;;17.10;60.30;;;17.01;44.21;101017.50;5055418;28;20637;-69
2023/06/13 03:32:07;;;;;;;4.97;3.20;;;17.30;59.90;;;16.88;45.24;101008.44;5055267;28;20287;-69
2023/06/13 03:34:43;;;;;;;4.53;3.50;;;17.10;59.60;;;16.80;45.11;101003.13;5055345;28;20557;-69
2023/06/13 03:37:16;;;;;;;5.23;3.73;;;17.00;59.80;;;16.88;45.16;101011.13;5055252;28;20584;-69
2023/06/13 03:39:50;;;;;;;5.93;3.57;;;17.00;60.80;;;16.84;45.53;101012.53;5055455;28;20278;-69
2023/06/13 03:42:23;;;;;;;7.00;3.60;;;17.00;61.40;;;16.83;45.32;101013.56;5055455;28;20221;-69
2023/06/13 03:44:56;;;;;;;7.67;3.50;;;17.00;61.40;;;16.86;45.76;101010.47;5055365;28;20253;-69
2023/06/13 03:47:29;;;;;;;6.80;3.50;;;17.00;61.90;;;16.68;46.27;101013.63;5055478;28;20567;-69
2023/06/13 03:50:03;;;;;;;5.33;3.70;;;16.20;61.00;;;16.66;46.06;101015.69;5055438;28;20269;-69
2023/06/13 03:52:37;;;;;;;4.07;3.43;;;16.90;62.10;;;16.58;45.91;101019.34;5055046;28;20261;-69
2023/06/13 03:55:11;;;;;;;4.57;3.30;;;16.80;62.50;;;16.60;46.39;101021.88;5055105;28;20668;-69
2023/06/13 03:57:45;;;;;;;5.57;3.30;;;16.80;62.50;;;16.57;46.22;101022.28;5055012;28;20196;-69
2023/06/13 04:00:21;;;;;;;5.63;3.43;;;16.80;61.80;;;16.59;46.35;101026.44;5054949;28;20200;-69
2023/06/13 04:02:55;;;;;;;3.43;3.00;;;16.80;62.10;;;16.58;46.19;101024.75;5054955;28;20241;-69
2023/06/13 04:05:28;;;;;;;4.60;3.10;;;16.80;62.30;;;16.44;45.69;101020.22;5055299;28;20191;-69
2023/06/13 04:08:02;;;;;;;4.63;2.77;;;16.70;61.10;;;16.54;46.48;101031.53;5055526;28;20217;-69
2023/06/13 04:10:35;;;;;;;5.27;3.30;;;16.80;62.00;;;16.46;46.07;101026.28;5053939;28;20608;-69
2023/06/13 04:13:09;;;;;;;7.40;3.30;;;16.70;61.70;;;16.48;45.81;101026.91;5055109;28;20363;-69
2023/06/13 04:15:42;;;;;;;7.73;3.50;;;16.70;61.80;;;16.50;45.70;101021.31;5055050;28;20197;-69
2023/06/13 04:18:17;;;;;;;5.53;3.30;;;16.70;61.80;;;16.51;46.62;101023.81;5055030;28;20222;-69
2023/06/13 04:20:51;;;;;;;6.27;3.00;;;16.80;62.30;;;16.58;47.02;101027.47;5054931;28;20216;-69
2023/06/13 04:23:27;;;;;;;5.83;3.47;;;16.80;62.60;;;16.53;45.56;101029.88;5054911;28;20311;-69
2023/06/13 04:26:02;;;;;;;6.33;3.60;;;16.80;61.60;;;16.51;46.42;101017.56;5054927;28;20285;-69
2023/06/13 04:28:37;;;;;;;4.20;3.60;;;16.80;62.70;;;16.49;47.26;101015.09;5054877;28;20190;-69
2023/06/13 04:31:11;;;;;;;6.97;3.20;;;16.70;62.80;;;16.52;46.69;101019.25;5054817;28;20186;-69
2023/06/13 04:33:45;;;;;;;4.77;3.50;;;16.70;62.60;;;16.47;46.74;101017.13;5054910;28;20234;-69
2023/06/13 04:36:19;;;;;;;7.47;3.30;;;16.70;63.00;;;16.43;47.11;101015.84;5054443;28;20651;-69
2023/06/13 04:38:53;;;;;;;5.93;3.33;;;16.70;63.60;;;16.46;47.68;101020.88;5054370;28;20714;-69
2023/06/13 04:41:27;;;;;;;6.10;3.10;;;16.70;64.00;;;16.45;48.13;101030.00;5054548;28;20213;-69
2023/06/13 04:44:00;;;;;;;5.37;3.60;;;16.70;64.80;;;16.39;47.88;101019.97;5054530;28;20221;-69
2023/06/13 04:46:35;;;;;;;9.53;2.97;;;16.60;64.00;;;16.36;47.30;101025.75;5054143;28;20309;-69
2023/06/13 04:49:09;;;;;;;6.67;3.30;;;16.70;63.50;;;16.37;48.28;101027.41;5054398;28;20198;-69
2023/06/13 04:51:42;;;;;;;6.33;3.03;;;16.70;64.40;;;16.33;47.11;101026.13;5054414;28;20187;-69
2023/06/13 04:54:16;;;;;;;6.97;3.10;;;16.60;63.60;;;16.33;46.70;101020.72;5054531;28;20237;-69
2023/06/13 04:56:50;;;;;;;8.67;3.20;;;16.70;63.00;;;16.37;47.65;101027.41;5054032;28;20661;-69
2023/06/13 04:59:23;;;;;;;5.57;3.20;;;16.70;64.20;;;16.36;48.98;101019.50;5054304;28;20237;-69
2023/06/13 05:01:56;;;;;;;7.37;3.13;;;16.70;67.00;;;16.31;48.60;101022.78;5054101;28;20214;-69
2023/06/13 05:04:30;;;;;;;6.13;2.97;;;16.70;64.20;;;16.33;47.97;101023.44;5054194;28;20277;-69
2023/06/13 05:07:05;;;;;;;4.47;2.80;;;16.70;64.40;;;16.31;48.01;101022.78;5054153;28;20190;-69
2023/06/13 05:09:38;;;;;;;7.80;3.50;;;16.60;64.20;;;16.30;47.41;101018.38;5054049;28;20276;-69
2023/06/13 05:12:13;;;;;;;5.80;3.33;;;16.70;63.70;;;16.34;47.72;101018.84;5053664;28;20190;-69
2023/06/13 05:14:46;;;;;;;7.50;3.37;;;16.70;64.30;;;16.26;47.56;101021.69;5054191;28;20225;-69
2023/06/13 05:17:20;;;;;;;7.07;3.40;;;16.60;63.70;;;16.32;47.43;101020.91;5053914;28;20200;-69
2023/06/13 05:19:54;;;;;;;6.87;3.37;;;16.70;64.10;;;16.35;48.04;101023.22;5053843;28;20206;-69
2023/06/13 05:22:29;;;;;;;4.87;2.97;;;16.70;63.90;;;16.38;47.25;101023.69;5053374;28;20316;-69
2023/06/13 05:25:02;;;;;;;6.23;3.07;;;16.80;63.70;;;16.36;47.89;101017.66;5053607;28;20633;-69
2023/06/13 05:27:36;;;;;;;4.17;3.57;;;16.70;63.70;;;16.40;46.28;101023.50;5053732;28;20225;-69
2023/06/13 05:30:11;;;;;;;3.93;2.97;;;16.80;63.60;;;16.39;46.75;101025.38;5053714;28;20197;-69
2023/06/13 05:32:45;;;;;;;5.53;3.20;;;16.80;62.80;;;16.37;46.58;101022.00;5053541;28;20332;-69
2023/06/13 05:35:19;;;;;;;5.47;2.80;;;16.90;63.20;;;16.45;47.00;101019.19;5053622;28;20198;-69
2023/06/13 05:37:54;;;;;;;5.70;3.20;;;16.80;63.60;;;16.45;46.16;101016.50;5053625;28;20191;-69
2023/06/13 05:40:27;;;;;;;4.00;2.90;;;16.90;62.30;;;16.48;47.34;101016.09;5053263;28;20230;-69
2023/06/13 05:43:01;;;;;;;4.53;3.27;;;16.90;63.90;;;16.49;46.05;101009.69;5053394;28;20266;-69
2023/06/13 05:45:34;;;;;;;4.47;3.50;;;16.90;62.20;;;16.45;46.52;101002.97;5053413;28;20264;-69
2023/06/13 05:48:08;;;;;;;5.37;2.97;;;16.90;62.60;;;16.54;46.09;101006.41;5053162;28;20633;-69
2023/06/13 07:42:24;;;;;;;4.97;3.10;;;19.00;93.40;;;19.03;45.48;101015.06;5092337;27;20565;-71
2023/06/13 07:44:56;;;;;;;6.40;3.93;;;19.60;69.10;;;19.13;44.12;101012.78;5070965;28;20212;-71
2023/06/13 07:47:28;;;;;;;6.70;3.87;;;19.60;65.50;;;19.22;44.02;101011.50;5070761;28;20190;-73
2023/06/13 07:50:00;;;;;;;7.20;3.70;;;19.70;65.90;;;19.31;45.06;101020.28;5071599;28;20264;-74
2023/06/13 07:52:32;;;;;;;5.23;3.70;;;19.90;68.10;;;19.45;44.40;101011.91;5072248;28;20229;-72
2023/06/13 07:55:04;;;;;;;7.03;3.53;;;19.90;66.00;;;19.45;45.38;101011.09;5070633;28;20201;-73
2023/06/13 07:57:37;;;;;;;8.20;3.60;;;20.00;67.10;;;19.53;44.12;101008.97;5070989;28;20255;-74
2023/06/13 08:00:29;;;;;;;10.47;4.30;;;20.10;65.90;;;19.69;42.94;101007.72;5070806;28;20190;-71
2023/06/13 08:03:01;;;;;;;7.17;3.93;;;20.20;64.60;;;19.89;43.03;101003.03;5070480;28;20629;-71
2023/06/13 08:05:32;;;;;;;10.27;4.00;;;20.30;64.60;;;19.98;43.09;100996.31;5071525;28;20193;-71
2023/06/13 08:08:04;;;;;;;8.47;3.77;;;20.50;63.80;;;20.02;43.08;100999.44;5071221;28;20278;-73
2023/06/13 08:10:36;;;;;;;11.67;4.07;;;20.50;64.80;;;20.05;43.12;100996.28;5070440;28;20214;-72
2023/06/13 08:13:09;;;;;;;5.63;3.83;;;20.60;64.50;;;20.10;42.22;100999.19;5070155;28;20710;-73
2023/06/13 08:15:41;;;;;;;7.83;3.63;;;20.60;64.00;;;20.17;42.53;101000.00;5070672;28;20193;-73
2023/06/13 08:18:13;;;;;;;6.20;3.57;;;20.70;63.50;;;20.35;42.44;101005.56;5071062;28;20196;-72
2023/06/13 08:20:45;;;;;;;5.80;3.70;;;20.80;64.20;;;20.34;43.68;101001.19;5070592;28;20285;-73
2023/06/13 08:23:18;;;;;;;8.23;3.63;;;20.80;64.00;;;20.45;42.61;100997.75;5070491;28;20685;-72
2023/06/13 08:25:50;;;;;;;4.50;3.33;;;20.90;63.50;;;20.55;43.12;100994.56;5070724;28;20297;-72
2023/06/13 08:28:25;;;;;;;7.70;3.60;;;21.00;65.50;;;20.65;43.35;101003.91;5071255;28;20194;-72
2023/06/13 08:30:57;;;;;;;4.53;3.70;;;21.20;64.00;;;20.78;41.54;100996.72;5070286;28;20627;-73
2023/06/13 08:33:48;;;;;;;8.17;3.80;;;21.30;62.20;;;20.88;43.22;100997.91;5071275;28;20205;-72
2023/06/13 08:36:39;;;;;;;5.90;3.47;;;21.40;64.20;;;21.15;41.41;100998.53;5072018;28;20194;-72
2023/06/13 08:39:11;;;;;;;5.30;3.50;;;21.60;62.40;;;21.14;41.50;101002.31;5071272;28;20562;-72
2023/06/13 08:41:45;;;;;;;4.50;3.60;;;21.60;61.90;;;21.27;41.31;101001.38;5066752;28;20317;-72
2023/06/13 08:44:20;;;;;;;6.23;3.87;;;21.70;62.20;;;21.31;42.06;100997.97;5056453;28;20190;-72
2023/06/13 08:46:51;;;;;;;5.87;3.60;;;21.70;63.00;;;21.50;42.59;100996.09;5057285;28;20655;-72
2023/06/13 08:49:26;;;;;;;6.00;4.07;;;22.00;63.60;;;21.69;40.25;100995.88;5058688;28;20197;-72
2023/06/13 08:51:59;;;;;;;9.07;4.63;;;22.10;60.60;;;21.87;40.51;100988.75;5057934;28;20230;-72
2023/06/13 08:54:35;;;;;;;6.30;4.03;;;22.30;61.10;;;21.89;40.13;100983.91;5056981;28;20269;-72
2023/06/13 08:57:20;;;;;;;7.50;4.10;;;22.40;62.10;;;21.96;40.43;100987.41;5058023;28;20191;-74
2023/06/13 08:59:56;;;;;;;8.63;3.77;;;22.40;60.30;;;22.12;39.52;100986.81;5057907;28;20635;-73
2023/06/13 09:02:28;;;;;;;5.73;3.60;;;22.50;59.50;;;22.19;40.07;100984.81;5056667;28;20628;-72
2023/06/13 09:05:03;;;;;;;6.57;4.43;;;22.70;59.70;;;22.29;39.13;100981.53;5056982;28;20195;-72
2023/06/13 09:07:36;;;;;;;8.67;4.00;;;22.70;58.40;;;22.39;40.10;100977.19;5055706;28;20186;-72
2023/06/13 09:10:10;;;;;;;10.17;4.57;;;22.90;59.90;;;22.41;39.52;100985.97;5055858;28;20715;-72
2023/06/13 09:12:46;;;;;;;8.20;4.10;;;22.80;59.50;;;22.48;40.59;100973.06;5055917;28;20609;-72
2023/06/13 09:15:20;;;;;;;7.73;3.57;;;22.90;60.30;;;22.65;40.74;100984.97;5055630;28;20604;-72
2023/06/13 09:17:53;;;;;;;5.87;3.77;;;23.10;60.50;;;22.71;39.71;100975.03;5055462;28;20190;-72
2023/06/13 09:20:28;;;;;;;6.17;3.90;;;23.10;59.50;;;22.82;40.52;100981.59;5055613;28;20193;-74
2023/06/13 09:23:03;;;;;;;8.67;3.97;;;23.20;59.90;;;22.95;39.77;100978.66;5054965;28;20606;-73
2023/06/13 09:25:38;;;;;;;6.37;3.90;;;23.40;59.50;;;23.06;38.70;100975.09;5055918;28;20222;-74
2023/06/13 09:28:31;;;;;;;5.07;3.97;;;23.50;57.30;;;23.17;38.42;100971.56;5055567;28;20689;-74
2023/06/13 09:31:06;;;;;;;7.13;4.07;;;23.60;57.20;;;23.39;37.35;100966.34;5055278;28;20590;-74
2023/06/13 09:33:38;;;;;;;6.03;3.63;;;23.80;56.70;;;23.42;36.42;100953.06;5055043;28;20583;-72
2023/06/13 09:36:11;;;;;;;5.37;3.90;;;23.80;56.20;;;23.66;37.58;100965.59;5055226;28;20532;-73
2023/06/13 09:38:44;;;;;;;8.70;4.40;;;24.10;56.90;;;23.81;36.86;100956.03;5055458;28;20190;-74
2023/06/13 09:41:19;;;;;;;4.70;3.70;;;24.20;56.20;;;23.87;37.99;100969.56;5055236;28;20253;-74
2023/06/13 09:43:53;;;;;;;6.70;3.70;;;24.30;56.70;;;23.95;35.69;100958.28;5055042;28;20190;-73
2023/06/13 09:46:28;;;;;;;6.40;3.80;;;24.30;54.30;;;24.16;35.82;100962.28;5055654;28;20280;-74
2023/06/13 09:49:00;;;;;;;8.45;3.90;;;24.50;54.50;;;24.19;35.27;100959.03;5055644;28;20190;-74
2023/06/13 09:51:33;;;;;;;4.63;4.00;;;24.60;54.10;;;24.15;35.52;100963.34;5055437;28;20206;-73
2023/06/13 09:54:05;;;;;;;6.87;3.97;;;24.50;53.90;;;24.30;35.74;100949.13;5054188;28;20281;-73
2023/06/13 09:56:37;;;;;;;7.00;3.63;;;24.60;54.70;;;24.34;37.73;100945.66;5054712;28;20194;-73
2023/06/13 09:59:09;;;;;;;4.03;3.50;;;24.70;56.50;;;24.58;34.90;100951.84;5055575;28;20226;-73
2023/06/13 10:01:43;;;;;;;10.80;4.53;;;25.00;54.20;;;24.69;34.28;100943.53;5054959;28;20309;-73
2023/06/13 10:04:15;;;;;;;6.80;3.90;;;25.10;52.60;;;24.61;33.79;100940.38;5054958;28;20186;-74
2023/06/13 10:06:47;;;;;;;5.18;4.25;;;25.00;51.90;;;24.87;32.48;100938.91;5054700;28;20213;-74
2023/06/13 10:09:19;;;;;;;4.90;4.18;;;25.20;51.10;;;25.09;32.54;100937.94;5054770;28;20258;-73
2023/06/13 10:11:58;;;;;;;6.45;3.72;;;25.40;51.20;;;25.05;32.33;100936.75;5054616;28;20317;-73
2023/06/13 10:14:37;;;;;;;7.82;4.05;;;25.30;50.30;;;25.07;33.13;100940.06;5054259;28;20552;-73
2023/06/13 10:17:16;;;;;;;3.97;3.67;;;25.40;51.10;;;25.18;31.14;100939.16;5054797;28;20198;-73
2023/06/13 10:19:54;;;;;;;6.85;4.15;;;25.50;49.80;;;25.32;31.14;100931.41;5054779;28;20189;-73
2023/06/13 10:22:27;;;;;;;8.25;4.57;;;25.60;48.80;;;25.57;28.37;100929.03;5054524;28;20264;-74
2023/06/13 10:25:02;;;;;;;7.80;4.45;;;25.90;45.10;;;25.73;28.72;100932.78;5054327;28;20683;-74
2023/06/13 10:27:37;;;;;;;4.53;4.05;;;26.00;45.90;;;25.82;29.85;100935.94;5054453;28;20198;-73
2023/06/13 10:30:31;;;;;;;5.20;4.30;;;26.20;46.40;;;25.89;28.48;100931.09;5054246;28;20204;-73
2023/06/13 10:33:33;;;;;;;5.88;4.47;;;26.20;44.10;;;25.93;29.62;100926.72;5054421;28;20226;-73
2023/06/13 10:36:16;;;;;;;5.00;4.50;;;26.20;45.10;;;26.04;27.30;100912.03;5054322;28;20678;-73
2023/06/13 10:39:23;;;;;;;8.90;5.32;;;26.30;44.50;;;26.30;27.03;100921.41;5054035;28;20191;-65
2023/06/13 10:42:08;;;;;;;4.80;4.40;;;26.60;42.90;;;26.38;24.59;100919.00;5053210;28;20261;-75
2023/06/13 10:44:46;;;;;;;4.85;4.22;;;26.80;40.00;;;26.20;23.79;100914.72;5053247;28;20678;-75
2023/06/13 10:47:19;;;;;;;4.47;4.00;;;26.50;38.30;;;26.52;25.04;100920.25;5053164;28;20632;-75
2023/06/13 10:49:55;;;;;;;7.63;5.10;;;26.70;41.00;;;26.69;25.06;100909.94;5054189;28;20196;-75
2023/06/13 10:52:29;;;;;;;5.25;4.72;;;26.90;40.70;;;26.86;25.30;100914.50;5053253;28;20233;-75
2023/06/13 10:55:02;;;;;;;5.10;4.60;;;27.10;40.80;;;26.99;25.47;100903.03;5053105;28;20695;-75
2023/06/13 10:57:56;;;;;;;4.60;4.05;;;27.20;40.40;;;27.06;24.53;100909.13;5053381;28;20214;-75
2023/06/13 11:00:29;;;;;;;4.95;4.45;;;27.30;39.80;;;27.14;23.94;100905.91;5053274;28;20225;-75
2023/06/13 11:03:00;;;;;;;4.57;4.07;;;27.40;38.50;;;27.03;24.09;100909.66;5052830;28;20225;-75
2023/06/13 11:05:37;;;;;;;4.20;3.83;;;27.20;39.00;;;27.21;23.58;100893.59;5053041;28;20200;-75
2023/06/13 11:08:20;;;;;;;5.25;4.78;;;27.30;39.30;;;27.18;25.18;100893.28;5053202;28;20194;-75
2023/06/13 11:10:54;;;;;;;6.50;4.88;;;27.40;39.80;;;27.35;23.91;100896.69;5053160;28;20263;-75
2023/06/13 11:13:28;;;;;;;6.03;4.65;;;27.50;39.20;;;27.26;23.59;100892.78;5052982;28;20236;-75
2023/06/13 11:16:19;;;;;;;9.70;4.90;;;27.50;38.20;;;27.36;24.43;100883.78;5053141;28;20190;-76
2023/06/13 11:18:52;;;;;;;5.38;4.82;;;27.50;39.30;;;27.52;25.25;100880.00;5052731;28;20633;-76
2023/06/13 11:21:27;;;;;;;8.82;4.20;;;27.80;39.20;;;27.57;23.60;100877.28;5053303;28;20277;-74
2023/06/13 11:23:59;;;;;;;9.30;4.93;;;27.80;38.30;;;27.57;24.78;100872.59;5053199;28;20285;-75
2023/06/13 11:26:31;;;;;;;5.18;4.63;;;27.70;39.80;;;27.73;25.01;100869.91;5053171;28;20186;-75
2023/06/13 11:29:03;;;;;;;7.20;5.07;;;27.90;40.10;;;27.60;24.39;100866.56;5053046;28;20210;-75
2023/06/13 11:31:37;;;;;;;9.57;4.60;;;27.90;38.80;;;27.86;24.18;100872.97;5052933;28;20278;-75
2023/06/13 11:34:15;;;;;;;7.75;4.45;;;28.00;40.00;;;28.00;24.13;100867.78;5053097;28;20568;-75
2023/06/13 11:36:50;;;;;;;8.98;4.63;;;28.20;38.80;;;28.06;23.32;100858.44;5053053;28;20217;-75
2023/06/13 11:39:31;;;;;;;6.18;4.40;;;28.30;38.80;;;28.24;23.39;100871.72;5053046;28;20289;-75
2023/06/13 11:42:10;;;;;;;5.45;4.95;;;28.40;37.40;;;28.31;22.26;100866.75;5052496;28;20316;-75
2023/06/13 11:44:43;;;;;;;6.68;4.80;;;28.50;36.00;;;28.28;22.27;100856.28;5052950;28;20195;-75
2023/06/13 11:47:15;;;;;;;5.65;4.30;;;28.50;36.60;;;28.45;22.81;100856.03;5052956;28;20197;-75
2023/06/13 11:49:59;;;;;;;6.25;4.50;;;28.50;36.70;;;28.44;22.26;100871.72;5052896;28;20190;-75
2023/06/13 11:52:32;;;;;;;5.53;4.47;;;28.50;35.30;;;28.22;22.70;100871.13;5052767;28;20279;-75
2023/06/13 11:55:16;;;;;;;5.22;4.78;;;28.40;35.80;;;28.40;22.29;100858.75;5052874;28;20198;-75
2023/06/13 11:57:49;;;;;;;5.55;4.47;;;28.50;36.40;;;28.67;22.99;100853.81;5052769;28;20194;-77
2023/06/13 12:00:25;;;;;;;5.55;4.93;;;28.80;37.80;;;28.86;22.88;100854.09;5052687;28;20281;-77
2023/06/13 12:02:59;;;;;;;6.70;4.93;;;29.00;36.80;;;28.85;24.09;100858.78;5052185;28;20232;-77
2023/06/13 12:05:34;;;;;;;5.28;4.80;;;28.90;38.40;;;28.83;21.67;100852.72;5052651;28;20201;-77
2023/06/13 12:08:10;;;;;;;5.38;4.68;;;28.90;36.00;;;28.91;22.25;100854.88;5052547;28;20186;-77
2023/06/13 12:10:41;;;;;;;6.03;5.13;;;28.90;36.00;;;28.97;22.48;100861.25;5052562;28;20277;-77
2023/06/13 12:13:18;;;;;;;5.38;4.57;;;28.90;37.40;;;29.07;21.87;100848.25;5052419;28;20350;-77
2023/06/13 12:15:49;;;;;;;6.47;4.70;;;29.20;36.80;;;29.04;21.84;100848.78;5052449;28;20198;-77
2023/06/13 12:18:21;;;;;;;5.07;4.53;;;29.10;36.10;;;29.23;21.15;100857.28;5055403;28;20795;-76
2023/06/13 12:20:59;;;;;;;5.78;4.82;;;29.30;34.90;;;29.23;21.84;100854.53;5056226;28;20198;-77
2023/06/13 12:23:33;;;;;;;6.28;4.63;;;29.20;35.90;;;29.13;21.48;100851.81;5055832;28;20217;-77
2023/06/13 12:26:07;;;;;;;7.10;4.97;;;29.20;35.40;;;29.44;23.76;100847.88;5056130;28;20248;-77
2023/06/13 12:28:41;;;;;;;5.00;4.50;;;29.40;36.90;;;29.36;21.54;100845.69;5056190;28;20218;-77
2023/06/13 12:31:13;;;;;;;6.35;4.93;;;29.50;35.70;;;29.32;22.01;100841.84;5056246;28;20281;-77
2023/06/13 12:33:45;;;;;;;5.63;5.13;;;29.30;35.50;;;29.24;21.91;100845.16;5055850;28;20301;-76
2023/06/13 12:36:19;;;;;;;5.93;4.68;;;29.20;36.10;;;29.23;22.80;100843.50;5056113;28;20273;-77
2023/06/13 12:38:56;;;;;;;8.88;4.55;;;29.10;36.10;;;29.39;21.50;100831.34;5055898;28;20218;-78